createdAt,value
2022-11-03T00:01:54.106Z,0.90
2022-11-03T00:04:24.090Z,1.10
2022-11-03T00:06:54.022Z,0.77
2022-11-03T00:09:23.558Z,1.10
2022-11-03T00:11:52.580Z,0.60
2022-11-03T00:14:24.717Z,0.63
2022-11-03T00:16:52.915Z,1.05
2022-11-03T00:19:21.776Z,0.60
2022-11-03T00:21:50.034Z,0.80
2022-11-03T00:24:18.307Z,0.80
2022-11-03T00:26:46.502Z,0.60
2022-11-03T00:29:15.693Z,1.25
2022-11-03T00:31:45.965Z,1.00
2022-11-03T00:34:14.285Z,0.63
2022-11-03T00:36:43.806Z,0.98
2022-11-03T00:39:12.703Z,0.75
2022-11-03T00:41:41.714Z,0.60
2022-11-03T00:44:11.095Z,0.70
2022-11-03T00:46:39.644Z,0.63
2022-11-03T00:49:09.217Z,0.85
2022-11-03T00:51:37.772Z,1.55
2022-11-03T00:54:07.380Z,0.50
2022-11-03T00:56:37.436Z,0.80
2022-11-03T00:59:07.412Z,0.70
2022-11-03T01:01:43.925Z,0.90
2022-11-03T01:04:33.634Z,0.75
2022-11-03T01:07:02.940Z,0.82
2022-11-03T01:09:32.776Z,0.52
2022-11-03T01:12:03.083Z,1.08
2022-11-03T01:14:34.243Z,0.77
2022-11-03T01:17:02.800Z,0.80
2022-11-03T01:19:32.541Z,0.65
2022-11-03T01:22:00.945Z,0.88
2022-11-03T01:24:29.224Z,1.02
2022-11-03T01:26:57.417Z,0.70
2022-11-03T01:29:25.736Z,0.40
2022-11-03T01:31:54.119Z,1.20
2022-11-03T01:34:25.266Z,0.70
2022-11-03T01:36:54.927Z,0.60
2022-11-03T01:39:23.286Z,0.75
2022-11-03T01:41:53.250Z,1.10
2022-11-03T01:44:34.579Z,0.60
2022-11-03T01:47:19.032Z,0.80
2022-11-03T01:49:51.454Z,0.98
2022-11-03T01:52:26.293Z,0.80
2022-11-03T01:55:00.253Z,1.95
2022-11-03T01:57:35.703Z,0.85
2022-11-03T02:00:05.174Z,0.80
2022-11-03T02:02:33.570Z,1.40
2022-11-03T02:05:03.292Z,1.05
2022-11-03T02:07:37.727Z,0.70
2022-11-03T02:10:08.907Z,0.77
2022-11-03T02:12:38.467Z,0.75
2022-11-03T02:15:15.038Z,0.80
2022-11-03T02:17:44.701Z,0.85
2022-11-03T02:20:16.230Z,1.20
2022-11-03T02:23:18.110Z,0.70
2022-11-03T02:25:49.259Z,0.57
2022-11-03T02:28:19.985Z,0.80
2022-11-03T02:30:54.778Z,0.75
2022-11-03T02:33:48.427Z,0.80
2022-11-03T02:36:22.050Z,0.90
2022-11-03T02:38:56.005Z,0.73
2022-11-03T02:41:27.096Z,1.00
2022-11-03T02:43:57.375Z,1.17
2022-11-03T02:46:27.576Z,0.60
2022-11-03T02:48:57.351Z,0.70
2022-11-03T02:51:25.624Z,0.57
2022-11-03T02:54:03.713Z,1.05
2022-11-03T02:56:39.690Z,0.77
2022-11-03T02:59:14.481Z,1.00
2022-11-03T03:01:48.051Z,0.82
2022-11-03T03:04:30.099Z,0.80
2022-11-03T03:07:03.005Z,0.75
2022-11-03T03:09:36.519Z,0.98
2022-11-03T03:12:07.653Z,1.40
2022-11-03T03:14:38.807Z,0.75
2022-11-03T03:17:12.801Z,0.60
2022-11-03T03:19:50.060Z,0.60
2022-11-03T03:22:28.791Z,0.90
2022-11-03T03:25:02.515Z,0.80
2022-11-03T03:27:34.395Z,0.80
2022-11-03T03:30:07.033Z,0.63
2022-11-03T03:32:39.418Z,0.80
2022-11-03T03:35:13.400Z,0.93
2022-11-03T03:37:49.855Z,1.23
2022-11-03T03:40:24.026Z,1.15
2022-11-03T03:42:54.379Z,0.80
2022-11-03T03:45:23.029Z,0.80
2022-11-03T03:47:56.342Z,0.80
2022-11-03T03:50:26.034Z,0.60
2022-11-03T03:52:59.358Z,0.50
2022-11-03T03:55:35.312Z,0.63
2022-11-03T03:58:05.927Z,0.98
2022-11-03T04:00:34.584Z,0.60
2022-11-03T04:03:05.089Z,1.77
2022-11-03T04:05:33.630Z,0.95
2022-11-03T04:08:01.926Z,0.93
2022-11-03T04:10:30.263Z,0.70
2022-11-03T04:13:15.755Z,0.73
2022-11-03T04:16:02.995Z,0.75
2022-11-03T04:18:48.789Z,0.70
2022-11-03T04:21:34.540Z,0.90
2022-11-03T04:24:02.881Z,1.00
2022-11-03T04:26:31.394Z,0.70
2022-11-03T04:29:00.169Z,0.85
2022-11-03T04:31:31.394Z,0.88
2022-11-03T04:34:00.343Z,0.90
2022-11-03T04:36:28.690Z,0.68
2022-11-03T04:38:56.893Z,0.70
2022-11-03T04:41:26.553Z,0.90
2022-11-03T04:43:55.469Z,0.50
2022-11-03T04:46:27.188Z,0.52
2022-11-03T04:49:00.066Z,0.85
2022-11-03T04:51:34.533Z,0.70
2022-11-03T04:54:05.073Z,0.60
2022-11-03T04:56:33.817Z,0.93
2022-11-03T04:59:02.110Z,0.80
2022-11-03T05:01:31.203Z,1.00
2022-11-03T05:04:00.891Z,0.88
2022-11-03T05:06:31.036Z,0.73
2022-11-03T05:09:04.254Z,0.98
2022-11-03T05:11:35.923Z,0.90
2022-11-03T05:14:14.951Z,0.95
2022-11-03T05:16:44.146Z,0.80
2022-11-03T05:19:20.201Z,0.80
2022-11-03T05:21:50.239Z,0.80
2022-11-03T05:24:21.663Z,0.70
2022-11-03T05:26:50.855Z,1.02
2022-11-03T05:29:22.601Z,0.50
2022-11-03T05:31:54.663Z,1.20
2022-11-03T05:34:36.165Z,0.82
2022-11-03T05:37:26.085Z,0.52
2022-11-03T05:39:58.732Z,0.80
2022-11-03T05:42:35.370Z,0.90
2022-11-03T05:45:06.002Z,1.55
2022-11-03T05:47:41.228Z,0.70
2022-11-03T05:50:19.734Z,0.90
2022-11-03T05:52:49.446Z,0.95
2022-11-03T05:55:26.494Z,0.60
2022-11-03T05:57:56.743Z,1.02
2022-11-03T06:00:30.891Z,0.98
2022-11-03T06:03:00.015Z,0.85
2022-11-03T06:05:31.816Z,0.82
2022-11-03T06:08:04.210Z,0.73
2022-11-03T06:10:35.693Z,0.68
2022-11-03T06:13:09.569Z,0.65
2022-11-03T06:15:38.739Z,0.63
2022-11-03T06:18:16.451Z,0.88
2022-11-03T06:20:53.759Z,0.70
2022-11-03T06:23:22.913Z,0.52
2022-11-03T06:25:53.993Z,1.15
2022-11-03T06:28:26.441Z,0.77
2022-11-03T06:30:55.077Z,1.10
2022-11-03T06:33:26.964Z,0.80
2022-11-03T06:36:00.645Z,0.73
2022-11-03T06:38:31.341Z,0.57
2022-11-03T06:41:00.076Z,2.65
2022-11-03T06:43:35.655Z,1.15
2022-11-03T06:46:13.567Z,2.22
2022-11-03T06:48:41.950Z,0.95
2022-11-03T06:51:19.796Z,0.90
2022-11-03T06:53:50.068Z,0.90
2022-11-03T06:56:21.521Z,0.50
2022-11-03T06:58:51.148Z,0.40
2022-11-03T07:01:24.057Z,0.70
2022-11-03T07:03:54.045Z,1.15
2022-11-03T07:06:27.358Z,1.10
2022-11-03T07:08:57.799Z,0.80
2022-11-03T07:11:27.369Z,0.82
2022-11-03T07:13:58.969Z,0.95
2022-11-03T07:16:31.249Z,0.60
2022-11-03T07:19:01.457Z,0.80
2022-11-03T07:21:45.100Z,1.10
2022-11-03T07:24:20.033Z,0.98
2022-11-03T07:26:48.492Z,1.35
2022-11-03T07:29:21.726Z,0.93
2022-11-03T07:31:50.799Z,1.08
2022-11-03T07:34:23.279Z,1.13
2022-11-03T07:36:56.008Z,0.82
2022-11-03T07:39:24.705Z,1.40
2022-11-03T07:41:53.266Z,1.15
2022-11-03T07:44:22.506Z,0.95
2022-11-03T07:46:52.031Z,0.95
2022-11-03T07:49:28.995Z,1.58
2022-11-03T07:52:00.467Z,1.00
2022-11-03T07:54:31.756Z,0.93
2022-11-03T07:57:01.643Z,1.40
2022-11-03T07:59:33.622Z,1.02
2022-11-03T08:02:03.103Z,1.15
2022-11-03T08:04:34.910Z,0.88
2022-11-03T08:07:05.709Z,1.10
2022-11-03T08:09:34.007Z,0.98
2022-11-03T08:12:02.251Z,1.20
2022-11-03T08:14:31.676Z,1.63
2022-11-03T08:17:00.116Z,1.10
2022-11-03T08:19:28.404Z,1.25
2022-11-03T08:21:56.637Z,0.88
2022-11-03T08:24:26.561Z,1.08
2022-11-03T08:26:54.811Z,1.27
2022-11-03T08:29:25.456Z,1.40
2022-11-03T08:31:53.936Z,1.23
2022-11-03T08:34:22.269Z,1.33
2022-11-03T08:36:50.519Z,0.80
2022-11-03T08:39:18.761Z,1.05
2022-11-03T08:41:48.435Z,0.80
2022-11-03T08:44:16.700Z,0.82
2022-11-03T08:46:44.949Z,0.90
2022-11-03T08:49:13.204Z,0.88
2022-11-03T08:51:44.441Z,0.75
2022-11-03T08:54:13.106Z,1.65
2022-11-03T08:56:41.299Z,1.63
2022-11-03T08:59:10.893Z,1.10
2022-11-03T09:01:39.327Z,1.48
2022-11-03T09:04:07.863Z,1.25
2022-11-03T09:06:36.191Z,1.00
2022-11-03T09:11:52.695Z,0.95
2022-11-03T09:14:22.238Z,0.90
2022-11-03T09:16:50.617Z,0.57
2022-11-03T09:19:18.877Z,0.90
2022-11-03T09:21:47.325Z,0.80
2022-11-03T09:24:15.545Z,1.13
2022-11-03T09:26:44.224Z,0.98
2022-11-03T09:29:12.526Z,1.73
2022-11-03T09:31:42.222Z,1.83
2022-11-03T09:34:10.531Z,1.67
2022-11-03T09:36:38.718Z,1.30
2022-11-03T09:39:07.048Z,1.58
2022-11-03T09:41:55.870Z,1.10
2022-11-03T09:44:24.625Z,1.67
2022-11-03T09:46:58.254Z,0.90
2022-11-03T09:49:27.729Z,1.45
2022-11-03T09:51:57.084Z,1.70
2022-11-03T09:54:26.962Z,1.17
2022-11-03T09:56:55.283Z,0.80
2022-11-03T09:59:24.635Z,0.60
2022-11-03T10:01:55.088Z,1.15
2022-11-03T10:04:28.097Z,0.60
2022-11-03T10:06:57.092Z,0.80
2022-11-03T10:09:26.910Z,1.30
2022-11-03T10:11:55.839Z,1.15
2022-11-03T10:14:24.361Z,0.80
2022-11-03T10:17:00.351Z,1.20
2022-11-03T10:19:28.917Z,0.70
2022-11-03T10:21:57.216Z,0.80
2022-11-03T10:24:26.814Z,0.70
2022-11-03T10:26:56.045Z,1.98
2022-11-03T10:29:25.982Z,1.30
2022-11-03T10:31:58.472Z,1.15
2022-11-03T10:34:36.606Z,1.13
2022-11-03T10:37:19.542Z,0.70
2022-11-03T10:39:49.015Z,0.98
2022-11-03T10:42:22.622Z,0.70
2022-11-03T10:44:54.166Z,0.70
2022-11-03T10:47:33.823Z,0.70
2022-11-03T10:50:20.188Z,1.17
2022-11-03T10:52:48.651Z,0.90
2022-11-03T10:55:20.620Z,0.63
2022-11-03T10:57:55.578Z,0.63
2022-11-03T11:00:24.405Z,0.60
2022-11-03T11:02:59.002Z,1.08
2022-11-03T11:05:27.649Z,0.57
2022-11-03T11:07:56.868Z,0.60
2022-11-03T11:10:27.137Z,0.60
2022-11-03T11:13:25.828Z,0.88
2022-11-03T11:15:55.711Z,0.68
2022-11-03T11:19:12.606Z,0.73
2022-11-03T11:22:02.565Z,0.70
2022-11-03T11:25:03.354Z,0.50
2022-11-03T11:28:07.110Z,0.50
2022-11-03T11:31:29.961Z,0.60
2022-11-03T11:34:35.622Z,0.60
2022-11-03T11:37:37.245Z,0.60
2022-11-03T11:40:14.357Z,0.40
2022-11-03T11:43:16.290Z,0.70
2022-11-03T11:46:21.771Z,0.85
2022-11-03T11:48:51.972Z,0.98
2022-11-03T11:51:20.318Z,0.50
2022-11-03T11:54:16.243Z,0.40
2022-11-03T11:56:43.891Z,0.60
2022-11-03T11:59:23.953Z,0.65
2022-11-03T12:01:55.922Z,0.77
2022-11-03T12:04:27.795Z,0.43
2022-11-03T12:06:57.514Z,0.60
2022-11-03T12:09:29.026Z,0.52
2022-11-03T12:12:00.710Z,0.85
2022-11-03T12:14:37.789Z,0.63
2022-11-03T12:17:35.174Z,0.60
2022-11-03T12:20:36.356Z,0.63
2022-11-03T12:23:04.686Z,0.60
2022-11-03T12:25:37.378Z,0.65
2022-11-03T12:28:06.536Z,1.25
2022-11-03T12:30:39.553Z,0.50
2022-11-03T12:33:08.545Z,0.68
2022-11-03T12:35:36.964Z,0.77
2022-11-03T12:38:05.295Z,0.57
2022-11-03T12:40:34.916Z,0.80
2022-11-03T12:43:03.390Z,0.40
2022-11-03T12:45:31.833Z,0.40
2022-11-03T12:48:00.075Z,0.50
2022-11-03T12:50:28.512Z,0.75
2022-11-03T12:52:56.810Z,0.75
2022-11-03T12:55:25.401Z,0.60
2022-11-03T12:57:55.043Z,0.70
2022-11-03T13:00:23.940Z,0.63
2022-11-03T13:02:52.495Z,0.73
2022-11-03T13:05:21.170Z,0.50
2022-11-03T13:07:49.460Z,0.50
2022-11-03T13:10:17.820Z,0.75
2022-11-03T13:12:46.842Z,0.95
2022-11-03T13:15:16.962Z,0.50
2022-11-03T13:18:11.644Z,0.60
2022-11-03T13:20:33.656Z,0.40
2022-11-03T13:23:02.066Z,0.60
2022-11-03T13:25:30.498Z,1.05
2022-11-03T13:27:59.578Z,0.60
2022-11-03T13:30:29.383Z,0.57
2022-11-03T13:32:57.933Z,0.40
2022-11-03T13:35:26.470Z,1.13
2022-11-03T13:37:54.705Z,0.47
2022-11-03T13:43:11.726Z,0.60
2022-11-03T13:45:41.596Z,1.02
2022-11-03T13:49:04.041Z,0.50
2022-11-03T13:51:00.268Z,0.52
2022-11-03T13:56:21.345Z,0.60
2022-11-03T14:01:41.069Z,1.17
2022-11-03T14:06:58.828Z,0.40
2022-11-03T14:09:27.187Z,0.50
2022-11-03T14:12:18.399Z,1.52
2022-11-03T14:14:46.727Z,0.68
2022-11-03T14:17:16.388Z,0.77
2022-11-03T14:19:50.202Z,0.70
2022-11-03T14:22:14.526Z,0.30
2022-11-03T14:24:42.896Z,0.80
2022-11-03T14:27:11.112Z,0.50
2022-11-03T14:29:39.614Z,0.73
2022-11-03T14:32:07.925Z,0.50
2022-11-03T14:34:38.497Z,0.57
2022-11-03T14:37:08.827Z,0.65
2022-11-03T14:39:37.627Z,0.60
2022-11-03T14:42:05.625Z,0.57
2022-11-03T14:44:35.616Z,0.80
2022-11-03T14:47:05.058Z,0.63
2022-11-03T14:49:35.009Z,0.85
2022-11-03T14:52:07.369Z,1.00
2022-11-03T14:54:36.826Z,1.05
2022-11-03T14:57:05.812Z,0.98
2022-11-03T14:59:34.863Z,1.20
2022-11-03T15:02:04.541Z,0.90
2022-11-03T15:04:33.025Z,1.00
2022-11-03T15:07:01.517Z,1.13
2022-11-03T15:09:31.115Z,1.48
2022-11-03T15:11:59.500Z,0.75
2022-11-03T15:14:28.160Z,1.05
2022-11-03T15:16:56.474Z,1.15
2022-11-03T15:19:24.824Z,0.95
2022-11-03T15:21:55.420Z,1.05
2022-11-03T15:27:15.677Z,1.05
2022-11-03T15:29:44.014Z,1.02
2022-11-03T15:32:12.363Z,1.30
2022-11-03T15:34:40.647Z,1.00
2022-11-03T15:37:09.117Z,1.05
2022-11-03T15:39:37.437Z,0.95
2022-11-03T15:42:06.110Z,1.10
2022-11-03T15:44:35.710Z,1.35
2022-11-03T15:47:04.115Z,1.50
2022-11-03T15:49:32.431Z,1.38
2022-11-03T15:52:00.637Z,1.38
2022-11-03T15:54:28.957Z,1.67
2022-11-03T15:56:57.317Z,1.20
2022-11-03T15:59:25.704Z,2.30
2022-11-03T16:02:03.823Z,1.50
2022-11-03T16:04:43.686Z,2.50
2022-11-03T16:07:11.943Z,2.40
2022-11-03T16:09:40.235Z,1.65
2022-11-03T16:12:09.011Z,2.13
2022-11-03T16:14:37.315Z,1.83
2022-11-03T16:17:07.121Z,1.08
2022-11-03T16:19:35.561Z,1.45
2022-11-03T16:22:05.351Z,1.15
2022-11-03T16:24:35.416Z,2.05
2022-11-03T16:27:04.878Z,2.15
2022-11-03T16:29:33.293Z,1.65
2022-11-03T16:32:01.877Z,2.25
2022-11-03T16:34:31.593Z,2.95
2022-11-03T16:37:00.788Z,2.60
2022-11-03T16:39:30.048Z,3.25
2022-11-03T16:41:58.311Z,2.33
2022-11-03T16:44:27.788Z,3.30
2022-11-03T16:46:56.057Z,3.20
2022-11-03T16:49:24.308Z,3.80
2022-11-03T16:51:54.262Z,3.22
2022-11-03T16:54:22.817Z,3.63
2022-11-03T16:56:54.729Z,4.75
2022-11-03T16:59:25.618Z,4.40
2022-11-03T17:01:54.179Z,3.60
2022-11-03T17:04:22.500Z,3.22
2022-11-03T17:06:50.768Z,3.58
2022-11-03T17:09:20.858Z,3.13
2022-11-03T17:11:49.164Z,3.75
2022-11-03T17:14:17.544Z,4.68
2022-11-03T17:16:47.140Z,2.45
2022-11-03T17:19:15.758Z,2.95
2022-11-03T17:21:44.569Z,2.42
2022-11-03T17:24:13.433Z,2.30
2022-11-03T17:26:51.680Z,2.92
2022-11-03T17:29:22.446Z,2.30
2022-11-03T17:31:51.620Z,3.42
2022-11-03T17:34:23.606Z,3.22
2022-11-03T17:36:53.543Z,2.53
2022-11-03T17:42:05.399Z,3.00
2022-11-03T17:44:33.711Z,4.07
2022-11-03T17:47:02.054Z,3.03
2022-11-03T17:49:30.433Z,7.10
2022-11-03T17:51:59.564Z,4.57
2022-11-03T17:54:29.578Z,6.90
2022-11-03T17:56:59.696Z,4.22
2022-11-03T17:59:28.634Z,5.43
2022-11-03T18:01:57.328Z,4.70
2022-11-03T18:04:25.731Z,4.88
2022-11-03T18:06:54.045Z,5.93
2022-11-03T18:09:22.954Z,6.35
2022-11-03T18:12:08.833Z,5.35
2022-11-03T18:14:38.525Z,7.15
2022-11-03T18:17:07.100Z,6.75
2022-11-03T18:19:35.424Z,5.50
2022-11-03T18:22:04.337Z,5.55
2022-11-03T18:24:32.630Z,6.07
2022-11-03T18:27:00.964Z,6.68
2022-11-03T18:29:29.370Z,6.05
2022-11-03T18:32:01.085Z,6.50
2022-11-03T18:34:36.043Z,5.22
2022-11-03T18:37:04.360Z,4.65
2022-11-03T18:39:32.643Z,3.85
2022-11-03T18:42:00.974Z,4.60
2022-11-03T18:44:30.986Z,4.85
2022-11-03T18:47:00.857Z,4.85
2022-11-03T18:49:33.037Z,5.30
2022-11-03T18:52:04.338Z,5.63
2022-11-03T18:54:35.251Z,6.43
2022-11-03T18:57:04.602Z,6.70
2022-11-03T18:59:37.089Z,7.18
2022-11-03T19:02:16.136Z,6.47
2022-11-03T19:04:44.875Z,6.35
2022-11-03T19:07:15.444Z,6.50
2022-11-03T19:09:45.319Z,6.90
2022-11-03T19:12:16.322Z,6.63
2022-11-03T19:14:46.136Z,7.85
2022-11-03T19:17:23.819Z,9.85
2022-11-03T19:19:52.893Z,13.57
2022-11-03T19:22:23.041Z,11.63
2022-11-03T19:24:51.458Z,11.60
2022-11-03T19:27:23.726Z,7.78
2022-11-03T19:29:52.612Z,9.07
2022-11-03T19:32:26.375Z,7.00
2022-11-03T19:34:58.298Z,9.30
2022-11-03T19:37:30.993Z,8.70
2022-11-03T19:40:02.463Z,9.02
2022-11-03T19:42:31.319Z,8.63
2022-11-03T19:45:00.949Z,8.05
2022-11-03T19:47:33.254Z,7.88
2022-11-03T19:50:02.808Z,7.75
2022-11-03T19:52:32.585Z,6.97
2022-11-03T19:55:05.548Z,6.55
2022-11-03T19:57:34.226Z,7.85
2022-11-03T20:00:03.518Z,10.82
2022-11-03T20:02:33.445Z,6.47
2022-11-03T20:05:02.183Z,6.22
2022-11-03T20:07:32.085Z,5.82
2022-11-03T20:10:02.640Z,5.63
2022-11-03T20:12:31.710Z,5.25
2022-11-03T20:15:00.150Z,6.45
2022-11-03T20:17:28.441Z,6.78
2022-11-03T20:19:58.095Z,6.15
2022-11-03T20:22:30.215Z,5.72
2022-11-03T20:25:03.005Z,15.55
2022-11-03T20:27:32.683Z,7.60
2022-11-03T20:30:01.053Z,6.43
2022-11-03T20:32:29.356Z,5.50
2022-11-03T20:34:58.981Z,4.15
2022-11-03T20:37:29.822Z,5.38
2022-11-03T20:39:59.091Z,5.57
2022-11-03T20:42:28.114Z,5.50
2022-11-03T20:44:56.386Z,4.47
2022-11-03T20:47:24.647Z,5.13
2022-11-03T20:49:53.046Z,5.95
2022-11-03T20:52:22.656Z,5.80
2022-11-03T20:54:51.954Z,6.10
2022-11-03T20:57:20.229Z,7.25
2022-11-03T20:59:48.807Z,9.18
2022-11-03T21:02:17.208Z,10.13
2022-11-03T21:04:45.510Z,11.85
2022-11-03T21:07:14.255Z,11.70
2022-11-03T21:09:43.863Z,11.23
2022-11-03T21:12:14.716Z,12.77
2022-11-03T21:15:32.136Z,12.05
2022-11-03T21:18:18.022Z,16.38
2022-11-03T21:20:47.279Z,20.88
2022-11-03T21:23:22.063Z,23.77
2022-11-03T21:25:51.864Z,17.80
2022-11-03T21:28:21.098Z,19.20
2022-11-03T21:30:50.676Z,22.17
2022-11-03T21:33:19.453Z,34.45
2022-11-03T21:35:49.315Z,25.10
2022-11-03T21:38:18.725Z,16.80
2022-11-03T21:40:52.357Z,15.57
2022-11-03T21:43:56.780Z,13.82
2022-11-03T21:46:25.355Z,13.70
2022-11-03T21:49:11.635Z,15.15
2022-11-03T21:51:39.902Z,13.80
2022-11-03T21:54:08.332Z,13.15
2022-11-03T21:56:36.572Z,13.52
2022-11-03T21:59:06.357Z,13.32
2022-11-03T22:01:34.716Z,14.10
2022-11-03T22:04:03.133Z,13.40
2022-11-03T22:06:32.584Z,12.88
2022-11-03T22:09:00.798Z,12.30
2022-11-03T22:11:29.087Z,12.00
2022-11-03T22:13:59.231Z,11.70
2022-11-03T22:16:37.570Z,10.20
2022-11-03T22:19:24.016Z,9.52
2022-11-03T22:22:09.749Z,9.18
2022-11-03T22:24:56.608Z,9.07
2022-11-03T22:27:25.441Z,8.98
2022-11-03T22:30:12.579Z,10.60
2022-11-03T22:32:42.545Z,7.72
2022-11-03T22:35:29.565Z,6.88
2022-11-03T22:38:06.883Z,7.82
2022-11-03T22:40:53.714Z,6.25
2022-11-03T22:43:37.235Z,6.53
2022-11-03T22:46:05.586Z,6.65
2022-11-03T22:48:35.760Z,6.68
2022-11-03T22:51:06.308Z,6.32
2022-11-03T22:53:54.408Z,6.10
2022-11-03T22:56:23.567Z,6.72
2022-11-03T22:58:52.311Z,6.63
2022-11-03T23:01:23.644Z,7.03
2022-11-03T23:03:53.814Z,6.40
2022-11-03T23:06:24.526Z,6.65
2022-11-03T23:08:54.530Z,6.53
2022-11-03T23:11:24.711Z,6.88
2022-11-03T23:13:55.185Z,6.53
2022-11-03T23:16:25.617Z,6.85
2022-11-03T23:19:12.821Z,6.22
2022-11-03T23:21:41.561Z,5.93
2022-11-03T23:24:27.134Z,5.40
2022-11-03T23:26:55.523Z,6.63
2022-11-03T23:29:23.876Z,5.57
2022-11-03T23:31:52.533Z,5.10
2022-11-03T23:34:22.953Z,5.90
2022-11-03T23:36:51.362Z,5.50
2022-11-03T23:39:21.253Z,4.95
2022-11-03T23:41:51.279Z,5.03
2022-11-03T23:44:19.530Z,4.90
2022-11-03T23:47:05.203Z,4.75
2022-11-03T23:49:34.861Z,5.15
2022-11-03T23:52:03.101Z,4.97
2022-11-03T23:54:31.698Z,5.05
2022-11-03T23:57:17.614Z,5.45
2022-11-03T23:59:46.124Z,5.25
